Time;durP1;ratioP1;P1;durP2;ratioP2;P2;SDS_P1;SDS_P2;PMS_P1;PMS_P2;Temp;Humidity;BMP_temperature;BMP_pressure;BME280_temperature;BME280_humidity;BME280_pressure;Samples;Min_cycle;Max_cycle;Signal;HPM_P1;HPM_P2
2023/04/09 00:01:21;;;;;;;;;;;7.90;98.60;;;;;;5109608;28;19972;-65
2023/04/09 00:03:46;;;;;;;;;;;7.90;98.60;;;;;;5111585;28;19915;-65
2023/04/09 00:06:12;;;;;;;;;;;7.90;99.00;;;;;;5111915;28;19939;-65
2023/04/09 00:08:37;;;;;;;;;;;7.80;98.70;;;;;;5111593;28;19922;-65
2023/04/09 00:11:03;;;;;;;;;;;7.90;98.50;;;;;;5111899;28;20007;-66
2023/04/09 00:13:28;;;;;;;;;;;7.80;98.50;;;;;;5109908;28;20554;-66
2023/04/09 00:15:54;;;;;;;;;;;7.80;98.40;;;;;;5111798;28;19941;-66
2023/04/09 00:18:20;;;;;;;;;;;7.80;98.50;;;;;;5111371;28;19930;-66
2023/04/09 00:20:45;;;;;;;;;;;7.80;98.50;;;;;;5111598;28;20006;-66
2023/04/09 00:23:11;;;;;;;;;;;7.80;98.60;;;;;;5111216;28;20555;-66
2023/04/09 00:25:36;;;;;;;;;;;7.80;98.50;;;;;;5111575;28;19943;-66
2023/04/09 00:28:02;;;;;;;;;;;7.80;98.70;;;;;;5111504;27;19911;-66
2023/04/09 00:30:28;;;;;;;;;;;7.70;98.50;;;;;;5110398;28;19951;-65
2023/04/09 00:32:54;;;;;;;;;;;7.70;98.60;;;;;;5090656;28;20383;-66
2023/04/09 00:35:19;;;;;;;;;;;7.70;98.70;;;;;;5090540;28;19912;-66
2023/04/09 00:37:45;;;;;;;;;;;7.70;98.70;;;;;;5104992;28;20015;-65
2023/04/09 00:40:10;;;;;;;;;;;7.70;98.70;;;;;;5111099;28;20387;-65
2023/04/09 00:42:36;;;;;;;;;;;7.70;98.70;;;;;;5111064;28;19937;-65
2023/04/09 00:45:02;;;;;;;;;;;7.70;98.70;;;;;;5111235;28;20004;-66
2023/04/09 00:47:28;;;;;;;;;;;7.60;98.70;;;;;;5111202;28;19915;-65
2023/04/09 00:49:54;;;;;;;;;;;7.60;98.70;;;;;;5111115;28;19912;-65
2023/04/09 00:52:20;;;;;;;;;;;7.60;98.60;;;;;;5110369;28;20341;-65
2023/04/09 00:54:47;;;;;;;;;;;7.60;98.60;;;;;;5110645;28;19919;-66
2023/04/09 00:57:13;;;;;;;;;;;7.60;98.70;;;;;;5105292;28;19912;-65
2023/04/09 00:59:39;;;;;;;;;;;7.50;98.70;;;;;;5110433;28;19922;-66
2023/04/09 01:02:05;;;;;;;;;;;7.50;98.70;;;;;;5110565;28;19998;-66
2023/04/09 01:04:30;;;;;;;;;;;7.50;98.70;;;;;;5110851;28;20444;-66
2023/04/09 01:07:06;;;;;;;;;;;7.50;98.60;;;;;;5110745;28;19912;-66
2023/04/09 01:09:36;;;;;;;;;;;7.50;98.60;;;;;;5110663;28;19943;-66
2023/04/09 01:12:16;;;;;;;;;;;7.50;98.70;;;;;;5110426;28;19912;-66
2023/04/09 01:14:51;;;;;;;;;;;7.50;98.70;;;;;;5109335;28;19916;-66
2023/04/09 01:17:29;;;;;;;;;;;7.40;98.60;;;;;;5110377;28;19911;-65
2023/04/09 01:20:09;;;;;;;;;;;7.40;98.60;;;;;;5110406;28;19927;-66
2023/04/09 01:22:53;;;;;;;;;;;7.40;98.60;;;;;;5108833;28;20615;-65
2023/04/09 01:25:37;;;;;;;;;;;7.40;98.60;;;;;;5110213;28;19923;-66
2023/04/09 01:28:21;;;;;;;;;;;7.40;98.50;;;;;;5110207;28;19932;-66
2023/04/09 01:30:49;;;;;;;;;;;7.30;98.50;;;;;;5106604;28;19999;-66
2023/04/09 01:33:16;;;;;;;;;;;7.30;98.50;;;;;;5102678;28;19918;-66
2023/04/09 01:35:42;;;;;;;;;;;7.30;98.50;;;;;;5110091;28;19908;-66
2023/04/09 01:38:09;;;;;;;;;;;7.30;98.50;;;;;;5109649;28;19922;-66
2023/04/09 01:40:35;;;;;;;;;;;7.30;98.50;;;;;;5108510;28;19912;-65
2023/04/09 01:43:01;;;;;;;;;;;7.30;98.50;;;;;;5109628;28;19980;-66
2023/04/09 01:45:27;;;;;;;;;;;7.20;98.50;;;;;;5108460;28;20273;-65
2023/04/09 01:47:53;;;;;;;;;;;7.20;98.40;;;;;;5109739;28;19929;-66
2023/04/09 01:50:18;;;;;;;;;;;7.20;98.40;;;;;;5108375;28;19933;-66
2023/04/09 01:52:44;;;;;;;;;;;7.20;98.50;;;;;;5109444;28;20277;-65
2023/04/09 01:55:09;;;;;;;;;;;7.20;98.50;;;;;;5109744;28;19953;-66
2023/04/09 01:57:35;;;;;;;;;;;7.20;98.40;;;;;;5103949;28;20374;-65
2023/04/09 02:00:01;;;;;;;;;;;7.20;98.40;;;;;;5109365;28;20036;-65
2023/04/09 02:02:46;;;;;;;;;;;7.10;98.40;;;;;;5109097;28;20321;-65
2023/04/09 02:05:14;;;;;;;;;;;7.20;98.40;;;;;;5108927;28;19947;-66
2023/04/09 02:07:47;;;;;;;;;;;7.10;98.40;;;;;;5108549;28;19916;-66
2023/04/09 02:10:13;;;;;;;;;;;7.10;98.40;;;;;;5109411;27;19972;-65
2023/04/09 02:12:41;;;;;;;;;;;7.10;98.30;;;;;;5109151;28;19911;-65
2023/04/09 02:15:07;;;;;;;;;;;7.00;98.30;;;;;;5107902;28;19912;-66
2023/04/09 02:17:33;;;;;;;;;;;7.00;98.30;;;;;;5109429;28;19919;-66
2023/04/09 02:19:58;;;;;;;;;;;7.00;98.30;;;;;;5109230;28;19919;-65
2023/04/09 02:22:24;;;;;;;;;;;7.00;98.30;;;;;;5107871;28;19918;-65
2023/04/09 02:24:49;;;;;;;;;;;7.00;98.30;;;;;;5107913;28;20329;-65
2023/04/09 02:27:15;;;;;;;;;;;7.00;98.20;;;;;;5108901;28;19908;-66
2023/04/09 02:29:41;;;;;;;;;;;7.00;98.20;;;;;;5108852;28;19914;-65
2023/04/09 02:32:07;;;;;;;;;;;6.90;98.20;;;;;;5093446;27;19958;-66
2023/04/09 02:34:32;;;;;;;;;;;6.90;98.20;;;;;;5088654;28;20288;-65
2023/04/09 02:36:58;;;;;;;;;;;6.90;98.20;;;;;;5096521;28;19911;-66
2023/04/09 02:39:23;;;;;;;;;;;6.90;98.20;;;;;;5109713;28;19948;-65
2023/04/09 02:41:49;;;;;;;;;;;6.90;98.20;;;;;;5108788;28;19916;-65
2023/04/09 02:44:14;;;;;;;;;;;6.90;98.20;;;;;;5108854;28;19918;-65
2023/04/09 02:46:40;;;;;;;;;;;6.80;98.20;;;;;;5108850;28;19912;-66
2023/04/09 02:49:06;;;;;;;;;;;6.80;98.20;;;;;;5108695;28;20369;-66
2023/04/09 02:51:34;;;;;;;;;;;6.80;98.10;;;;;;5108609;28;20530;-66
2023/04/09 02:53:59;;;;;;;;;;;6.80;98.10;;;;;;5108267;28;19916;-66
2023/04/09 02:56:25;;;;;;;;;;;6.80;98.10;;;;;;5103492;28;19965;-65
2023/04/09 02:58:52;;;;;;;;;;;6.80;98.10;;;;;;5106361;28;19911;-66
2023/04/09 03:01:18;;;;;;;;;;;6.80;98.10;;;;;;5108647;28;19918;-66
2023/04/09 03:03:44;;;;;;;;;;;6.80;98.10;;;;;;5107908;28;19944;-66
2023/04/09 03:06:09;;;;;;;;;;;6.70;98.10;;;;;;5108546;28;20343;-65
2023/04/09 03:08:35;;;;;;;;;;;6.70;98.00;;;;;;5108453;28;19912;-65
2023/04/09 03:11:01;;;;;;;;;;;6.70;98.00;;;;;;5108382;28;20280;-65
2023/04/09 03:13:26;;;;;;;;;;;6.70;98.10;;;;;;5107977;28;20034;-66
2023/04/09 03:15:52;;;;;;;;;;;6.70;98.00;;;;;;5108382;28;20348;-66
2023/04/09 03:18:17;;;;;;;;;;;6.70;98.00;;;;;;5107619;28;19912;-65
2023/04/09 03:20:43;;;;;;;;;;;6.60;98.00;;;;;;5108105;28;19920;-65
2023/04/09 03:23:09;;;;;;;;;;;6.60;97.90;;;;;;5108029;28;19968;-65
2023/04/09 03:25:34;;;;;;;;;;;6.60;97.90;;;;;;5108242;28;20375;-66
2023/04/09 03:28:00;;;;;;;;;;;6.60;97.90;;;;;;5108072;28;20025;-66
2023/04/09 03:30:25;;;;;;;;;;;6.60;97.90;;;;;;5107254;28;19923;-65
2023/04/09 03:32:51;;;;;;;;;;;6.60;97.90;;;;;;5105126;28;19915;-66
2023/04/09 03:35:16;;;;;;;;;;;6.60;97.90;;;;;;5108272;28;20409;-65
2023/04/09 03:37:42;;;;;;;;;;;6.50;97.80;;;;;;5107934;28;19919;-65
2023/04/09 03:40:07;;;;;;;;;;;6.50;97.80;;;;;;5108035;28;19958;-65
2023/04/09 03:42:33;;;;;;;;;;;6.50;97.80;;;;;;5107604;28;19918;-65
2023/04/09 03:44:59;;;;;;;;;;;6.50;97.70;;;;;;5107883;28;19920;-65
2023/04/09 03:47:25;;;;;;;;;;;6.50;97.70;;;;;;5107984;28;19972;-65
2023/04/09 03:49:50;;;;;;;;;;;6.40;97.70;;;;;;5107966;28;19951;-66
2023/04/09 03:52:16;;;;;;;;;;;6.40;97.70;;;;;;5108010;28;19920;-65
2023/04/09 03:54:42;;;;;;;;;;;6.40;97.70;;;;;;5106584;28;20361;-65
2023/04/09 03:57:07;;;;;;;;;;;6.40;97.60;;;;;;5102882;28;19962;-66
2023/04/09 03:59:33;;;;;;;;;;;6.40;97.70;;;;;;5107377;28;20381;-65
2023/04/09 04:01:58;;;;;;;;;;;6.40;97.60;;;;;;5107545;28;20407;-65
2023/04/09 04:04:24;;;;;;;;;;;6.40;97.60;;;;;;5107670;28;20003;-66
2023/04/09 04:06:49;;;;;;;;;;;6.40;97.60;;;;;;5107301;28;19918;-66
2023/04/09 04:09:15;;;;;;;;;;;6.40;97.60;;;;;;5107344;28;20273;-66
2023/04/09 04:11:40;;;;;;;;;;;6.30;97.50;;;;;;5107419;28;19947;-66
2023/04/09 04:14:06;;;;;;;;;;;6.30;97.50;;;;;;5107606;28;19908;-65
2023/04/09 04:16:31;;;;;;;;;;;6.30;97.70;;;;;;5107767;28;19907;-66
2023/04/09 04:18:57;;;;;;;;;;;6.30;97.50;;;;;;5106156;28;19968;-66
2023/04/09 04:21:22;;;;;;;;;;;6.30;97.50;;;;;;5108169;28;19918;-65
2023/04/09 04:23:48;;;;;;;;;;;6.20;97.40;;;;;;5107467;28;20007;-65
2023/04/09 04:26:14;;;;;;;;;;;6.20;97.40;;;;;;5107895;28;19923;-66
2023/04/09 04:28:39;;;;;;;;;;;6.20;97.40;;;;;;5107370;28;19931;-65
2023/04/09 04:31:09;;;;;;;;;;;6.20;97.40;;;;;;5104016;28;20323;-65
2023/04/09 04:33:35;;;;;;;;;;;6.20;97.40;;;;;;5089097;28;20361;-65
2023/04/09 04:36:11;;;;;;;;;;;6.20;97.40;;;;;;5090929;28;19913;-65
2023/04/09 04:38:37;;;;;;;;;;;6.20;97.40;;;;;;5090864;28;19915;-66
2023/04/09 04:41:03;;;;;;;;;;;6.20;97.30;;;;;;5102024;28;19911;-65
2023/04/09 04:43:29;;;;;;;;;;;6.20;97.30;;;;;;5109434;28;19912;-65
2023/04/09 04:45:54;;;;;;;;;;;6.20;97.30;;;;;;5111392;28;19978;-65
2023/04/09 04:48:20;;;;;;;;;;;6.10;97.30;;;;;;5109660;28;20328;-66
2023/04/09 04:50:46;;;;;;;;;;;6.10;97.30;;;;;;5110745;28;19964;-65
2023/04/09 04:53:11;;;;;;;;;;;6.10;97.30;;;;;;5110637;28;19912;-66
2023/04/09 04:55:38;;;;;;;;;;;6.10;97.30;;;;;;5110928;28;19922;-66
2023/04/09 04:58:04;;;;;;;;;;;6.10;97.30;;;;;;5110147;28;19964;-66
2023/04/09 05:00:30;;;;;;;;;;;6.10;97.30;;;;;;5110697;28;19915;-65
2023/04/09 05:02:55;;;;;;;;;;;6.10;97.20;;;;;;5110532;28;19916;-65
2023/04/09 05:05:24;;;;;;;;;;;6.10;97.20;;;;;;5109698;28;19927;-65
2023/04/09 05:07:49;;;;;;;;;;;6.00;97.20;;;;;;5107402;28;19954;-65
2023/04/09 05:10:15;;;;;;;;;;;6.00;97.20;;;;;;5110276;28;19939;-65
2023/04/09 05:12:40;;;;;;;;;;;6.00;97.20;;;;;;5110095;28;19908;-65
2023/04/09 05:15:06;;;;;;;;;;;6.00;97.20;;;;;;5109857;28;19908;-65
2023/04/09 05:17:32;;;;;;;;;;;6.00;97.20;;;;;;5110235;28;19955;-65
2023/04/09 05:19:57;;;;;;;;;;;6.10;97.20;;;;;;5109950;28;19929;-65
2023/04/09 05:22:25;;;;;;;;;;;6.00;97.20;;;;;;5109090;28;20417;-66
2023/04/09 05:24:50;;;;;;;;;;;6.00;97.20;;;;;;5109788;28;19985;-65
2023/04/09 05:27:18;;;;;;;;;;;6.00;97.20;;;;;;5110102;28;19934;-65
2023/04/09 05:29:44;;;;;;;;;;;6.00;97.10;;;;;;5110370;28;20301;-65
2023/04/09 05:32:09;;;;;;;;;;;6.00;97.10;;;;;;5109718;28;20016;-66
2023/04/09 05:34:35;;;;;;;;;;;6.00;97.10;;;;;;5109603;28;19959;-66
2023/04/09 05:37:00;;;;;;;;;;;6.00;97.10;;;;;;5109458;28;20471;-65
2023/04/09 05:39:26;;;;;;;;;;;6.00;97.10;;;;;;5110025;28;19912;-65
2023/04/09 05:41:52;;;;;;;;;;;6.00;97.10;;;;;;5108171;28;19919;-65
2023/04/09 05:44:18;;;;;;;;;;;6.00;97.10;;;;;;5109812;27;19972;-66
2023/04/09 05:46:43;;;;;;;;;;;6.00;97.10;;;;;;5108638;28;19951;-66
2023/04/09 05:49:09;;;;;;;;;;;6.00;97.00;;;;;;5109263;28;19922;-65
2023/04/09 05:51:34;;;;;;;;;;;6.00;97.10;;;;;;5109464;28;19923;-65
2023/04/09 05:54:00;;;;;;;;;;;6.00;97.10;;;;;;5107683;28;20020;-65
2023/04/09 05:56:26;;;;;;;;;;;6.00;97.10;;;;;;5108721;28;19918;-65
2023/04/09 05:58:52;;;;;;;;;;;6.00;97.10;;;;;;5109661;28;19919;-65
2023/04/09 06:01:18;;;;;;;;;;;6.00;97.10;;;;;;5109174;28;20351;-65
2023/04/09 06:03:43;;;;;;;;;;;6.00;97.10;;;;;;5108570;28;19916;-65
2023/04/09 06:06:09;;;;;;;;;;;6.00;97.10;;;;;;5108538;28;19922;-66
2023/04/09 06:08:35;;;;;;;;;;;6.00;97.10;;;;;;5109112;27;20387;-65
2023/04/09 06:11:00;;;;;;;;;;;6.00;97.10;;;;;;5109028;28;19973;-66
2023/04/09 06:13:26;;;;;;;;;;;6.00;97.10;;;;;;5108453;28;19920;-66
2023/04/09 06:15:51;;;;;;;;;;;6.00;97.10;;;;;;5108906;28;19919;-65
2023/04/09 06:18:17;;;;;;;;;;;6.00;97.10;;;;;;5108664;28;20546;-65
2023/04/09 06:20:42;;;;;;;;;;;6.00;97.10;;;;;;5108815;28;20313;-65
2023/04/09 06:23:08;;;;;;;;;;;6.10;97.00;;;;;;5108845;28;19915;-65
2023/04/09 06:25:35;;;;;;;;;;;6.10;97.00;;;;;;5109286;28;19918;-65
2023/04/09 06:28:00;;;;;;;;;;;6.20;97.00;;;;;;5107465;28;19912;-65
2023/04/09 06:30:26;;;;;;;;;;;6.20;96.90;;;;;;5108295;28;19922;-65
2023/04/09 06:32:51;;;;;;;;;;;6.20;96.90;;;;;;5106934;28;19912;-65
2023/04/09 06:35:17;;;;;;;;;;;6.30;96.90;;;;;;5107311;28;19912;-65
2023/04/09 06:37:42;;;;;;;;;;;6.30;96.90;;;;;;5107959;28;19908;-66
2023/04/09 06:40:08;;;;;;;;;;;6.30;96.90;;;;;;5107995;28;19923;-65
2023/04/09 06:42:33;;;;;;;;;;;6.30;97.00;;;;;;5104209;28;19916;-65
2023/04/09 06:44:59;;;;;;;;;;;6.30;96.90;;;;;;5107623;28;20048;-65
2023/04/09 06:47:25;;;;;;;;;;;6.30;97.00;;;;;;5108424;28;19912;-65
2023/04/09 06:49:50;;;;;;;;;;;6.40;97.00;;;;;;5108179;28;19919;-65
2023/04/09 06:52:16;;;;;;;;;;;6.40;97.00;;;;;;5107510;28;19950;-65
2023/04/09 06:54:41;;;;;;;;;;;6.40;97.00;;;;;;5108499;28;19908;-65
2023/04/09 06:57:08;;;;;;;;;;;6.40;97.00;;;;;;5103231;28;19912;-65
2023/04/09 06:59:33;;;;;;;;;;;6.50;97.00;;;;;;5108223;28;19919;-65
2023/04/09 07:01:59;;;;;;;;;;;6.50;96.90;;;;;;5108257;28;19911;-66
2023/04/09 07:04:25;;;;;;;;;;;6.50;96.90;;;;;;5108770;28;19919;-65
2023/04/09 07:06:53;;;;;;;;;;;6.60;96.80;;;;;;5108712;28;19911;-65
2023/04/09 07:09:19;;;;;;;;;;;6.60;96.80;;;;;;5108725;28;19911;-65
2023/04/09 07:11:44;;;;;;;;;;;6.60;96.80;;;;;;5108312;28;19922;-65
2023/04/09 07:14:10;;;;;;;;;;;6.60;96.80;;;;;;5108136;28;20288;-65
2023/04/09 07:16:35;;;;;;;;;;;6.60;96.70;;;;;;5108292;28;19965;-65
2023/04/09 07:19:01;;;;;;;;;;;6.70;96.80;;;;;;5108068;28;20020;-65
2023/04/09 07:21:27;;;;;;;;;;;6.70;96.80;;;;;;5108653;28;20317;-65
2023/04/09 07:23:52;;;;;;;;;;;6.70;96.70;;;;;;5107924;28;19908;-66
2023/04/09 07:26:18;;;;;;;;;;;6.80;96.70;;;;;;5106930;28;19912;-65
2023/04/09 07:28:44;;;;;;;;;;;6.80;96.70;;;;;;5107375;28;20328;-65
2023/04/09 07:31:10;;;;;;;;;;;6.80;96.60;;;;;;5108006;28;19919;-65
2023/04/09 07:33:35;;;;;;;;;;;6.90;96.60;;;;;;5107688;28;19908;-65
2023/04/09 07:36:01;;;;;;;;;;;7.00;96.50;;;;;;5108305;28;19969;-65
2023/04/09 07:38:28;;;;;;;;;;;7.00;96.40;;;;;;5108144;28;19908;-65
2023/04/09 07:40:53;;;;;;;;;;;7.10;96.40;;;;;;5108305;28;19911;-65
2023/04/09 07:43:18;;;;;;;;;;;7.20;96.50;;;;;;5106336;28;19965;-65
2023/04/09 07:45:47;;;;;;;;;;;7.20;96.30;;;;;;5108041;28;19948;-66
2023/04/09 07:48:12;;;;;;;;;;;7.30;96.20;;;;;;5107753;28;19962;-65
2023/04/09 07:50:38;;;;;;;;;;;7.40;96.20;;;;;;5108104;28;19963;-66
2023/04/09 07:53:04;;;;;;;;;;;7.50;96.30;;;;;;5107123;28;20372;-66
2023/04/09 07:55:29;;;;;;;;;;;7.50;96.10;;;;;;5108738;28;20373;-66
2023/04/09 07:57:55;;;;;;;;;;;7.60;95.90;;;;;;5102613;28;19916;-66
2023/04/09 08:00:20;;;;;;;;;;;7.70;95.50;;;;;;5107662;28;19947;-66
2023/04/09 08:02:46;;;;;;;;;;;7.80;95.50;;;;;;5107518;28;20034;-65
2023/04/09 08:05:11;;;;;;;;;;;7.80;95.30;;;;;;5109008;28;20015;-65
2023/04/09 08:07:37;;;;;;;;;;;7.90;95.10;;;;;;5111841;28;20006;-65
2023/04/09 08:10:02;;;;;;;;;;;8.00;95.00;;;;;;5111937;28;19908;-65
2023/04/09 08:12:28;;;;;;;;;;;8.00;94.80;;;;;;5111404;28;20404;-65
2023/04/09 08:14:54;;;;;;;;;;;8.10;94.70;;;;;;5110144;28;19947;-66
2023/04/09 08:17:19;;;;;;;;;;;8.20;94.60;;;;;;5111320;28;19922;-65
2023/04/09 08:19:45;;;;;;;;;;;8.20;94.40;;;;;;5110855;28;19919;-65
2023/04/09 08:22:10;;;;;;;;;;;8.30;94.40;;;;;;5110384;28;19911;-66
2023/04/09 08:24:37;;;;;;;;;;;8.30;94.30;;;;;;5110930;28;19915;-66
2023/04/09 08:27:03;;;;;;;;;;;8.40;94.20;;;;;;5110108;28;19916;-65
2023/04/09 08:29:29;;;;;;;;;;;8.50;94.10;;;;;;5110290;28;20656;-65
2023/04/09 08:31:54;;;;;;;;;;;8.50;93.90;;;;;;5109442;28;19919;-66
2023/04/09 08:34:20;;;;;;;;;;;8.60;93.90;;;;;;5109873;28;19915;-66
2023/04/09 08:36:46;;;;;;;;;;;8.70;93.90;;;;;;5107783;28;19927;-65
2023/04/09 08:39:12;;;;;;;;;;;8.70;93.80;;;;;;5108624;28;20280;-65
2023/04/09 08:41:41;;;;;;;;;;;8.70;93.70;;;;;;5109745;28;19911;-65
2023/04/09 08:44:06;;;;;;;;;;;8.80;93.70;;;;;;5109662;28;19908;-66
2023/04/09 08:46:35;;;;;;;;;;;8.80;93.60;;;;;;5110047;28;19908;-66
2023/04/09 08:49:00;;;;;;;;;;;8.90;93.80;;;;;;5106932;28;19912;-66
2023/04/09 08:51:27;;;;;;;;;;;8.90;93.60;;;;;;5110121;28;19918;-66
2023/04/09 08:53:53;;;;;;;;;;;8.90;93.60;;;;;;5107792;28;19912;-66
2023/04/09 08:56:19;;;;;;;;;;;9.00;93.50;;;;;;5107669;27;19912;-65
2023/04/09 08:58:45;;;;;;;;;;;9.10;93.40;;;;;;5109132;28;20467;-65
2023/04/09 09:01:37;;;;;;;;;;;9.10;93.50;;;;;;5110146;28;19911;-65
2023/04/09 09:04:03;;;;;;;;;;;9.10;93.50;;;;;;5106992;28;20389;-66
2023/04/09 09:06:31;;;;;;;;;;;9.10;93.50;;;;;;5109896;28;20097;-66
2023/04/09 09:09:10;;;;;;;;;;;9.10;93.40;;;;;;5109442;28;19912;-66
2023/04/09 09:11:36;;;;;;;;;;;9.10;93.50;;;;;;5107710;28;19992;-66
2023/04/09 09:14:02;;;;;;;;;;;9.10;93.50;;;;;;5107525;28;19908;-65
2023/04/09 09:16:28;;;;;;;;;;;9.20;93.70;;;;;;5108981;28;19919;-66
2023/04/09 09:18:55;;;;;;;;;;;9.30;94.00;;;;;;5108941;28;19927;-66
2023/04/09 09:21:21;;;;;;;;;;;9.30;93.70;;;;;;5109145;28;19912;-66
2023/04/09 09:23:49;;;;;;;;;;;9.30;93.90;;;;;;5108056;28;19915;-66
2023/04/09 09:26:17;;;;;;;;;;;9.40;93.70;;;;;;5108317;28;19919;-66
2023/04/09 09:28:43;;;;;;;;;;;9.40;93.90;;;;;;5108386;28;19918;-66
2023/04/09 09:31:09;;;;;;;;;;;9.40;93.90;;;;;;5108431;28;20364;-66
2023/04/09 09:33:35;;;;;;;;;;;9.50;94.00;;;;;;5107867;28;19971;-66
2023/04/09 09:36:02;;;;;;;;;;;9.60;93.70;;;;;;5109372;28;20415;-66
2023/04/09 09:38:28;;;;;;;;;;;9.70;93.80;;;;;;5088968;27;20499;-66
2023/04/09 09:40:53;;;;;;;;;;;9.70;93.70;;;;;;5106375;28;19923;-66
2023/04/09 09:43:19;;;;;;;;;;;9.70;93.80;;;;;;5107932;28;20561;-66
2023/04/09 09:45:47;;;;;;;;;;;9.80;93.80;;;;;;5108463;28;20386;-66
2023/04/09 09:48:13;;;;;;;;;;;9.90;93.70;;;;;;5108248;28;19919;-66
2023/04/09 09:50:42;;;;;;;;;;;10.00;93.60;;;;;;5108766;28;19915;-66
2023/04/09 09:53:08;;;;;;;;;;;9.90;93.90;;;;;;5108129;28;20008;-66
2023/04/09 09:55:37;;;;;;;;;;;9.90;93.80;;;;;;5108619;27;19918;-66
2023/04/09 09:58:10;;;;;;;;;;;9.90;93.70;;;;;;5108065;28;19988;-66
2023/04/09 10:00:38;;;;;;;;;;;9.90;93.80;;;;;;5108774;28;20368;-66
2023/04/09 10:03:13;;;;;;;;;;;10.00;93.70;;;;;;5106687;28;19917;-66
2023/04/09 10:05:39;;;;;;;;;;;10.10;93.60;;;;;;5107653;28;20584;-66
2023/04/09 10:08:05;;;;;;;;;;;10.10;93.90;;;;;;5103341;28;19919;-66
2023/04/09 10:10:32;;;;;;;;;;;10.10;94.00;;;;;;5108222;28;19908;-66
2023/04/09 10:12:57;;;;;;;;;;;10.20;94.00;;;;;;5108055;28;19908;-66
2023/04/09 10:15:24;;;;;;;;;;;10.20;93.90;;;;;;5106629;28;19911;-68
2023/04/09 10:17:50;;;;;;;;;;;10.30;93.70;;;;;;5108018;28;20341;-66
2023/04/09 10:20:23;;;;;;;;;;;10.30;93.90;;;;;;5107762;28;19915;-66
2023/04/09 10:22:49;;;;;;;;;;;10.40;93.80;;;;;;5105334;28;20025;-66
2023/04/09 10:25:15;;;;;;;;;;;10.50;93.70;;;;;;5107748;28;20398;-66
2023/04/09 10:27:43;;;;;;;;;;;10.60;93.60;;;;;;5106942;28;19912;-66
2023/04/09 10:30:09;;;;;;;;;;;10.60;93.70;;;;;;5107902;28;20672;-66
2023/04/09 10:32:35;;;;;;;;;;;10.50;93.70;;;;;;5105788;28;20488;-66
2023/04/09 10:35:02;;;;;;;;;;;10.60;93.80;;;;;;5107533;28;19912;-66
2023/04/09 10:37:27;;;;;;;;;;;10.60;93.80;;;;;;5106311;28;19908;-66
2023/04/09 10:39:53;;;;;;;;;;;10.80;93.80;;;;;;5107664;28;19919;-66
2023/04/09 10:42:23;;;;;;;;;;;10.90;93.50;;;;;;5107156;28;19912;-67
2023/04/09 10:45:07;;;;;;;;;;;11.00;93.30;;;;;;5107416;28;19912;-66
2023/04/09 10:47:33;;;;;;;;;;;11.10;93.30;;;;;;5106548;28;20679;-66
2023/04/09 10:50:15;;;;;;;;;;;11.20;93.00;;;;;;5107392;28;19919;-66
2023/04/09 10:52:41;;;;;;;;;;;11.30;93.40;;;;;;5102987;28;19918;-67
2023/04/09 10:55:07;;;;;;;;;;;11.30;93.60;;;;;;5107136;28;19961;-66
2023/04/09 10:57:32;;;;;;;;;;;11.30;93.80;;;;;;5104699;28;19908;-67
2023/04/09 10:59:58;;;;;;;;;;;11.30;93.80;;;;;;5106936;28;20329;-66
2023/04/09 11:02:38;;;;;;;;;;;11.40;93.80;;;;;;5106968;28;19919;-67
2023/04/09 11:05:22;;;;;;;;;;;11.40;94.00;;;;;;5104727;28;19911;-66
2023/04/09 11:07:53;;;;;;;;;;;11.40;93.80;;;;;;5105575;28;20517;-66
2023/04/09 11:10:20;;;;;;;;;;;11.50;93.80;;;;;;5107208;28;19976;-66
2023/04/09 11:12:46;;;;;;;;;;;11.70;93.60;;;;;;5106662;28;19915;-66
2023/04/09 11:15:16;;;;;;;;;;;11.90;93.40;;;;;;5106836;28;19915;-66
2023/04/09 11:17:42;;;;;;;;;;;11.90;93.50;;;;;;5104230;28;19988;-66
2023/04/09 11:20:08;;;;;;;;;;;11.90;93.60;;;;;;5106754;28;19997;-66
2023/04/09 11:22:34;;;;;;;;;;;12.00;93.60;;;;;;5106941;28;20006;-66
2023/04/09 11:25:00;;;;;;;;;;;12.20;93.40;;;;;;5107870;28;20408;-66
2023/04/09 11:27:25;;;;;;;;;;;12.40;93.10;;;;;;5106058;28;20349;-67
2023/04/09 11:29:54;;;;;;;;;;;12.50;93.00;;;;;;5107660;28;19996;-66
2023/04/09 11:32:20;;;;;;;;;;;12.60;92.90;;;;;;5104959;28;19920;-66
2023/04/09 11:34:45;;;;;;;;;;;12.70;92.70;;;;;;5107246;28;19908;-67
2023/04/09 11:37:15;;;;;;;;;;;12.70;92.90;;;;;;5106803;28;19919;-67
2023/04/09 11:39:45;;;;;;;;;;;12.70;93.00;;;;;;5108302;28;19922;-67
2023/04/09 11:42:14;;;;;;;;;;;12.80;93.10;;;;;;5111147;28;20022;-66
2023/04/09 11:44:42;;;;;;;;;;;12.90;93.30;;;;;;5111294;28;19916;-66
2023/04/09 11:47:08;;;;;;;;;;;13.10;93.10;;;;;;5110831;28;20277;-66
2023/04/09 11:49:34;;;;;;;;;;;13.20;93.00;;;;;;5110917;28;19912;-67
2023/04/09 11:52:00;;;;;;;;;;;13.30;92.70;;;;;;5110535;28;19919;-66
2023/04/09 11:54:31;;;;;;;;;;;13.50;92.80;;;;;;5109497;28;19912;-66
2023/04/09 11:56:57;;;;;;;;;;;13.50;92.30;;;;;;5110470;28;20357;-66
2023/04/09 11:59:23;;;;;;;;;;;13.60;92.10;;;;;;5110227;28;19920;-67
2023/04/09 12:01:49;;;;;;;;;;;13.50;93.00;;;;;;5110510;28;20610;-66
2023/04/09 12:04:19;;;;;;;;;;;13.50;92.90;;;;;;5110108;28;19920;-66
2023/04/09 12:06:44;;;;;;;;;;;13.50;93.00;;;;;;5107995;27;19937;-66
2023/04/09 12:09:12;;;;;;;;;;;13.40;93.00;;;;;;5109256;28;19912;-67
2023/04/09 12:11:40;;;;;;;;;;;13.40;93.00;;;;;;5110528;28;19916;-66
2023/04/09 12:14:06;;;;;;;;;;;13.40;93.60;;;;;;5110089;28;20002;-66
2023/04/09 12:16:35;;;;;;;;;;;13.50;93.80;;;;;;5108886;28;20015;-66
2023/04/09 12:19:10;;;;;;;;;;;13.60;93.80;;;;;;5109907;28;19993;-66
2023/04/09 12:21:48;;;;;;;;;;;13.60;93.60;;;;;;5110763;28;19911;-66
2023/04/09 12:24:14;;;;;;;;;;;13.70;93.60;;;;;;5110717;28;20376;-66
2023/04/09 12:26:40;;;;;;;;;;;13.80;93.30;;;;;;5110627;28;20269;-66
2023/04/09 12:29:05;;;;;;;;;;;13.90;92.80;;;;;;5109109;28;19908;-66
2023/04/09 12:31:31;;;;;;;;;;;14.00;93.00;;;;;;5110545;28;19925;-67
2023/04/09 12:33:56;;;;;;;;;;;14.00;92.60;;;;;;5110306;28;19912;-66
2023/04/09 12:36:22;;;;;;;;;;;14.00;92.80;;;;;;5109838;28;20696;-66
2023/04/09 12:38:48;;;;;;;;;;;13.90;93.00;;;;;;5108927;28;19981;-66
2023/04/09 12:41:14;;;;;;;;;;;14.00;93.20;;;;;;5108881;28;19912;-67
2023/04/09 12:43:42;;;;;;;;;;;13.90;93.50;;;;;;5109947;28;20431;-66
2023/04/09 12:46:07;;;;;;;;;;;13.90;93.60;;;;;;5110296;28;19965;-66
2023/04/09 12:48:33;;;;;;;;;;;14.00;93.50;;;;;;5110150;28;19915;-66
2023/04/09 12:50:59;;;;;;;;;;;14.00;93.60;;;;;;5109361;28;19919;-66
2023/04/09 12:53:25;;;;;;;;;;;14.00;93.00;;;;;;5109874;28;19912;-66
2023/04/09 12:55:50;;;;;;;;;;;14.10;93.00;;;;;;5109873;27;19918;-67
2023/04/09 12:58:16;;;;;;;;;;;14.10;93.40;;;;;;5110313;27;19947;-67
2023/04/09 13:00:41;;;;;;;;;;;14.20;92.60;;;;;;5109523;28;19908;-66
2023/04/09 13:03:07;;;;;;;;;;;14.20;93.00;;;;;;5110454;28;19950;-67
2023/04/09 13:05:34;;;;;;;;;;;14.30;92.40;;;;;;5110596;28;20602;-66
2023/04/09 13:08:00;;;;;;;;;;;14.30;91.90;;;;;;5110431;28;19995;-66
2023/04/09 13:10:26;;;;;;;;;;;14.30;92.30;;;;;;5110859;28;20280;-66
2023/04/09 13:12:51;;;;;;;;;;;14.20;92.40;;;;;;5110256;28;19919;-66
2023/04/09 13:15:17;;;;;;;;;;;14.20;92.50;;;;;;5110283;28;19918;-66
2023/04/09 13:17:42;;;;;;;;;;;14.20;92.80;;;;;;5110341;28;20400;-67
2023/04/09 13:20:08;;;;;;;;;;;14.20;92.80;;;;;;5110095;28;19920;-66
2023/04/09 13:22:34;;;;;;;;;;;14.20;92.30;;;;;;5110097;28;19911;-66
2023/04/09 13:25:00;;;;;;;;;;;14.30;93.10;;;;;;5109937;28;19950;-67
2023/04/09 13:27:26;;;;;;;;;;;14.30;93.00;;;;;;5110262;28;20400;-66
2023/04/09 13:29:51;;;;;;;;;;;14.40;92.90;;;;;;5110020;28;19919;-66
2023/04/09 13:32:19;;;;;;;;;;;14.40;92.40;;;;;;5093690;28;19930;-66
2023/04/09 13:34:45;;;;;;;;;;;14.40;91.90;;;;;;5089672;28;19919;-68
2023/04/09 13:37:10;;;;;;;;;;;14.40;92.50;;;;;;5097527;28;19908;-67
2023/04/09 13:39:36;;;;;;;;;;;14.40;92.30;;;;;;5110118;27;19998;-68
2023/04/09 13:42:01;;;;;;;;;;;14.50;92.30;;;;;;5109633;28;19908;-67
2023/04/09 13:44:27;;;;;;;;;;;14.50;92.30;;;;;;5109950;28;20382;-68
2023/04/09 13:46:53;;;;;;;;;;;14.60;90.60;;;;;;5109846;28;19916;-67
2023/04/09 13:49:19;;;;;;;;;;;14.70;92.10;;;;;;5109769;27;19937;-68
2023/04/09 13:51:45;;;;;;;;;;;14.80;92.20;;;;;;5109574;28;19933;-67
2023/04/09 13:54:12;;;;;;;;;;;14.80;91.90;;;;;;5110028;27;20478;-67
2023/04/09 13:56:37;;;;;;;;;;;14.90;92.00;;;;;;5107619;28;19912;-67
2023/04/09 13:59:03;;;;;;;;;;;14.90;92.20;;;;;;5109399;28;19981;-68
2023/04/09 14:01:28;;;;;;;;;;;14.90;91.40;;;;;;5107936;28;19912;-67
2023/04/09 14:03:54;;;;;;;;;;;14.90;91.70;;;;;;5106657;28;19912;-68
2023/04/09 14:06:20;;;;;;;;;;;14.90;92.00;;;;;;5109535;28;20006;-68
2023/04/09 14:08:45;;;;;;;;;;;14.90;92.10;;;;;;5109509;28;19958;-67
2023/04/09 14:11:14;;;;;;;;;;;14.90;92.30;;;;;;5109760;28;20356;-68
2023/04/09 14:13:39;;;;;;;;;;;14.80;92.30;;;;;;5109173;28;20036;-67
2023/04/09 14:16:06;;;;;;;;;;;14.90;92.30;;;;;;5109434;28;19950;-68
2023/04/09 14:18:31;;;;;;;;;;;14.80;92.20;;;;;;5109084;28;20409;-68
2023/04/09 14:20:57;;;;;;;;;;;14.90;92.20;;;;;;5109319;28;19920;-67
2023/04/09 14:23:24;;;;;;;;;;;14.80;92.30;;;;;;5107243;28;19915;-68